Time;durP1;ratioP1;P1;durP2;ratioP2;P2;SDS_P1;SDS_P2;PMS_P1;PMS_P2;Temp;Humidity;BMP_temperature;BMP_pressure;BME280_temperature;BME280_humidity;BME280_pressure;Samples;Min_cycle;Max_cycle;Signal;HPM_P1;HPM_P2
2022/04/28 00:00:47;;;;;;;4.78;2.80;;;;;;;4.37;51.27;100311.50;5051882;28;20056;-62
2022/04/28 00:03:13;;;;;;;6.43;3.53;;;;;;;4.56;51.87;100356.56;5052127;28;20131;-61
2022/04/28 00:05:39;;;;;;;4.90;3.45;;;;;;;4.53;52.14;100364.66;5051662;28;20127;-61
2022/04/28 00:08:05;;;;;;;5.95;3.85;;;;;;;4.46;52.80;100360.53;5051782;28;20035;-62
2022/04/28 00:10:31;;;;;;;7.57;3.53;;;;;;;4.40;52.37;100364.38;5035126;28;20047;-61
2022/04/28 00:12:57;;;;;;;6.80;4.10;;;;;;;4.31;53.06;100367.41;5069938;28;20531;-59
2022/04/28 00:15:22;;;;;;;5.82;3.88;;;;;;;4.25;53.11;100365.06;5051584;28;20028;-61
2022/04/28 00:17:48;;;;;;;8.68;4.50;;;;;;;4.19;53.03;100382.09;5069714;28;20036;-60
2022/04/28 00:20:14;;;;;;;5.00;3.75;;;;;;;4.05;53.36;100356.22;5069443;28;20086;-61
2022/04/28 00:22:39;;;;;;;6.38;4.30;;;;;;;3.78;53.36;100345.06;5051299;28;20468;-61
2022/04/28 00:25:05;;;;;;;6.22;4.10;;;;;;;3.78;53.68;100356.50;5069765;28;20034;-62
2022/04/28 00:27:31;;;;;;;5.45;4.03;;;;;;;3.75;53.56;100375.19;5052366;28;20107;-61
2022/04/28 00:29:57;;;;;;;5.70;4.32;;;;;;;3.65;52.58;100376.53;5073582;28;20540;-61
2022/04/28 00:32:22;;;;;;;4.97;3.45;;;;;;;3.53;52.52;100377.91;5055540;28;20025;-60
2022/04/28 00:34:48;;;;;;;6.68;3.80;;;;;;;3.47;52.48;100384.31;5055489;28;20522;-62
2022/04/28 00:37:14;;;;;;;6.50;3.30;;;;;;;3.48;51.89;100393.13;5073229;28;20384;-61
2022/04/28 00:39:40;;;;;;;5.65;2.85;;;;;;;3.32;51.15;100358.50;5073173;28;20039;-61
2022/04/28 00:42:15;;;;;;;4.10;3.10;;;;;;;3.60;50.78;100392.59;5055534;28;20025;-62
2022/04/28 00:44:42;;;;;;;5.75;3.33;;;;;;;3.50;50.18;100396.59;5073290;28;20146;-62
2022/04/28 00:47:08;;;;;;;4.35;2.85;;;;;;;3.44;50.81;100395.88;5073029;28;20639;-63
2022/04/28 00:52:19;;;;;;;3.63;2.72;;;;;;;3.28;50.65;100402.75;5073323;28;20031;-61
2022/04/28 00:54:46;;;;;;;6.53;2.85;;;;;;;3.21;50.78;100404.78;5072834;28;20032;-61
2022/04/28 00:57:13;;;;;;;6.63;3.08;;;;;;;3.28;50.34;100408.06;5072920;28;20025;-61
2022/04/28 00:59:39;;;;;;;4.35;2.95;;;;;;;2.94;50.05;100372.38;5054921;28;20128;-62
2022/04/28 01:02:05;;;;;;;4.32;2.67;;;;;;;3.10;50.46;100414.94;5073060;28;20552;-61
2022/04/28 01:04:31;;;;;;;4.28;2.42;;;;;;;2.95;50.58;100403.19;5054954;28;20033;-63
2022/04/28 01:06:57;;;;;;;7.95;3.00;;;;;;;2.92;50.98;100408.59;5072955;28;20469;-61
2022/04/28 01:09:22;;;;;;;5.90;3.05;;;;;;;2.84;51.78;100414.19;5072900;28;20031;-60
2022/04/28 01:11:48;;;;;;;6.18;3.30;;;;;;;2.82;51.26;100419.56;5072749;28;20127;-61
2022/04/28 01:14:13;;;;;;;8.02;3.15;;;;;;;2.77;51.41;100423.28;5054644;28;20033;-61
2022/04/28 01:16:39;;;;;;;4.80;2.97;;;;;;;2.71;51.66;100427.91;5072094;28;20519;-62
2022/04/28 01:19:04;;;;;;;5.45;3.40;;;;;;;2.61;51.75;100420.38;5072298;28;20121;-62
2022/04/28 01:21:30;;;;;;;6.32;4.00;;;;;;;2.63;52.48;100429.94;5054915;28;20108;-61
2022/04/28 01:23:56;;;;;;;7.13;3.75;;;;;;;2.58;53.11;100426.63;5072627;28;20119;-62
2022/04/28 01:26:23;;;;;;;6.43;4.00;;;;;;;2.53;53.84;100428.59;5072018;28;20052;-61
2022/04/28 01:28:48;;;;;;;5.40;3.80;;;;;;;2.53;53.97;100431.22;5054440;28;20078;-62
2022/04/28 01:31:14;;;;;;;6.80;3.97;;;;;;;2.53;53.37;100434.75;5072646;28;20026;-62
2022/04/28 01:33:39;;;;;;;6.28;3.72;;;;;;;2.56;53.33;100444.31;5072130;28;20048;-62
2022/04/28 01:36:05;;;;;;;5.35;3.92;;;;;;;2.57;53.57;100439.00;5072032;28;20120;-63
2022/04/28 01:38:32;;;;;;;7.68;3.90;;;;;;;2.52;53.25;100426.88;5072380;28;20051;-62
2022/04/28 01:40:57;;;;;;;5.45;4.10;;;;;;;2.61;53.34;100447.66;5071925;28;20067;-61
2022/04/28 01:43:23;;;;;;;5.75;3.47;;;;;;;2.60;52.96;100448.56;5053968;28;20036;-62
2022/04/28 01:45:49;;;;;;;6.65;3.17;;;;;;;2.62;52.31;100440.59;5071982;28;20175;-62
2022/04/28 01:48:14;;;;;;;7.75;3.40;;;;;;;2.66;51.59;100445.72;5072142;28;20119;-62
2022/04/28 01:50:40;;;;;;;7.22;3.60;;;;;;;2.66;52.00;100445.72;5053830;28;20364;-61
2022/04/28 01:55:50;;;;;;;4.10;2.58;;;;;;;2.51;48.75;100431.28;5071507;28;20461;-62
2022/04/28 01:58:16;;;;;;;7.28;2.85;;;;;;;2.82;46.94;100455.69;5071785;28;20418;-63
2022/04/28 02:00:41;;;;;;;3.72;2.45;;;;;;;2.62;46.76;100459.94;5053409;28;20049;-62
2022/04/28 02:03:07;;;;;;;4.25;2.17;;;;;;;2.51;46.57;100457.69;5053379;28;20032;-62
2022/04/28 02:05:33;;;;;;;3.35;2.53;;;;;;;2.41;46.40;100457.22;5071985;28;20032;-62
2022/04/28 02:07:59;;;;;;;4.55;2.55;;;;;;;2.38;46.51;100462.56;5071296;28;20075;-61
2022/04/28 02:10:25;;;;;;;4.75;2.65;;;;;;;2.34;45.90;100463.63;5053457;28;20036;-62
2022/04/28 02:12:50;;;;;;;2.63;2.20;;;;;;;2.33;46.00;100468.97;5071593;28;20318;-62
2022/04/28 02:15:16;;;;;;;3.13;2.17;;;;;;;2.19;44.89;100429.84;5053320;28;20468;-61
2022/04/28 02:17:41;;;;;;;3.00;2.33;;;;;;;2.35;44.91;100469.78;5071143;28;20571;-61
2022/04/28 02:20:09;;;;;;;3.80;2.13;;;;;;;2.53;44.13;100466.47;5071628;28;20036;-61
2022/04/28 02:22:36;;;;;;;5.63;2.78;;;;;;;2.57;43.87;100468.06;5071562;28;20066;-62
2022/04/28 02:25:02;;;;;;;4.82;2.08;;;;;;;2.61;44.04;100474.09;5053568;28;20116;-62
2022/04/28 02:27:28;;;;;;;4.93;2.60;;;;;;;2.56;43.59;100476.03;5071189;28;20574;-62
2022/04/28 02:29:54;;;;;;;4.78;2.75;;;;;;;2.29;43.84;100445.31;5071202;28;20058;-61
2022/04/28 02:32:20;;;;;;;3.85;2.33;;;;;;;2.43;44.26;100473.88;5071104;28;20495;-61
2022/04/28 02:34:45;;;;;;;4.85;2.28;;;;;;;2.42;44.44;100474.78;5070988;28;20033;-62
2022/04/28 02:37:11;;;;;;;6.30;2.92;;;;;;;2.22;44.12;100437.66;5053357;28;20387;-61
2022/04/28 02:39:37;;;;;;;4.85;2.58;;;;;;;2.38;44.21;100465.22;5053116;28;20039;-61
2022/04/28 02:42:02;;;;;;;7.68;2.47;;;;;;;2.47;43.88;100482.53;5071089;28;20025;-61
2022/04/28 02:44:28;;;;;;;5.28;2.63;;;;;;;2.51;43.94;100483.28;5052873;28;20032;-61
2022/04/28 02:46:53;;;;;;;6.03;2.90;;;;;;;2.52;43.81;100482.38;5071064;28;20044;-62
2022/04/28 02:49:19;;;;;;;3.70;2.33;;;;;;;2.37;43.86;100455.56;5036339;28;20025;-62
2022/04/28 02:51:45;;;;;;;4.57;2.50;;;;;;;2.52;43.23;100477.09;5069461;28;20032;-61
2022/04/28 02:54:29;;;;;;;4.50;2.35;;;;;;;2.65;43.06;100496.88;5070634;28;20115;-62
2022/04/28 02:56:55;;;;;;;4.57;2.55;;;;;;;2.76;42.70;100504.38;5070874;28;20044;-61
2022/04/28 02:59:20;;;;;;;6.22;2.60;;;;;;;2.82;42.08;100495.38;5070228;28;20028;-62
2022/04/28 03:01:46;;;;;;;4.00;2.20;;;;;;;2.97;41.65;100501.84;5070312;28;20111;-61
2022/04/28 03:04:11;;;;;;;4.90;2.15;;;;;;;3.13;41.23;100513.59;5070512;28;20024;-62
2022/04/28 03:12:04;;;;;;;3.42;2.55;;;;;;;3.84;40.79;100504.59;5070601;28;20064;-61
2022/04/28 03:14:30;;;;;;;3.58;2.30;;;;;;;3.94;39.75;100502.41;5070389;28;20128;-61
2022/04/28 03:16:55;;;;;;;5.22;2.40;;;;;;;4.21;38.83;100511.91;5052419;28;20043;-61
2022/04/28 03:19:20;;;;;;;4.82;2.58;;;;;;;4.36;38.90;100515.69;5052011;28;20040;-62
2022/04/28 03:21:46;;;;;;;3.85;1.90;;;;;;;4.53;37.70;100517.59;5070200;28;20139;-62
2022/04/28 03:24:12;;;;;;;6.38;2.35;;;;;;;4.68;37.12;100516.91;5070612;28;20068;-61
2022/04/28 03:26:40;;;;;;;6.45;2.40;;;;;;;4.85;36.68;100525.91;5071233;28;20033;-62
2022/04/28 03:29:06;;;;;;;4.88;2.15;;;;;;;4.78;36.25;100492.59;5071044;28;20555;-61
2022/04/28 03:31:31;;;;;;;5.30;2.10;;;;;;;5.01;35.71;100528.72;5051976;28;20115;-62
2022/04/28 03:33:57;;;;;;;3.00;1.88;;;;;;;5.07;35.52;100515.16;5052654;28;20032;-61
2022/04/28 03:39:06;;;;;;;3.35;1.80;;;;;;;5.48;34.81;100534.53;5070843;28;20100;-61
2022/04/28 03:41:32;;;;;;;2.70;1.90;;;;;;;5.73;33.47;100537.72;5035866;28;20055;-62
2022/04/28 03:43:57;;;;;;;1.70;1.30;;;;;;;5.73;33.16;100481.91;5070091;28;20036;-62
2022/04/28 03:46:24;;;;;;;4.78;1.30;;;;;;;6.27;31.27;100541.28;5070451;28;20029;-61
2022/04/28 03:48:49;;;;;;;7.18;1.25;;;;;;;6.12;30.71;100521.66;5070224;28;20082;-60
2022/04/28 03:51:15;;;;;;;3.90;1.10;;;;;;;6.25;30.93;100543.16;5070002;28;20126;-61
2022/04/28 03:53:40;;;;;;;2.40;1.10;;;;;;;6.33;30.09;100546.31;5070250;28;20099;-62
2022/04/28 03:56:06;;;;;;;1.80;1.30;;;;;;;6.52;30.28;100550.69;5052367;28;20032;-61
2022/04/28 03:58:32;;;;;;;1.58;1.00;;;;;;;6.47;29.36;100535.81;5069989;28;20471;-61
2022/04/28 04:00:59;;;;;;;2.03;1.33;;;;;;;6.48;29.49;100555.28;5070394;28;20063;-63
2022/04/28 04:03:24;;;;;;;1.63;1.00;;;;;;;6.34;29.91;100541.84;5072671;28;20384;-62
2022/04/28 04:05:50;;;;;;;2.53;1.00;;;;;;;6.42;30.35;100564.44;5074108;28;20036;-61
2022/04/28 04:08:15;;;;;;;1.38;0.98;;;;;;;6.86;29.05;100562.19;5074464;28;20036;-62
2022/04/28 04:10:41;;;;;;;2.13;1.23;;;;;;;7.41;28.36;100560.13;5074363;28;20036;-61
2022/04/28 04:13:07;;;;;;;1.95;1.23;;;;;;;8.01;27.46;100566.53;5074306;28;20510;-62
2022/04/28 04:15:32;;;;;;;2.72;1.10;;;;;;;9.42;25.65;100568.75;5074148;28;20040;-62
2022/04/28 04:17:59;;;;;;;2.25;1.13;;;;;;;10.87;23.67;100561.91;5074076;28;20033;-62
2022/04/28 04:20:25;;;;;;;4.00;1.23;;;;;;;12.04;22.21;100563.31;5073555;28;20032;-62
2022/04/28 04:22:51;;;;;;;3.97;1.02;;;;;;;13.46;20.68;100566.75;5074183;28;20044;-61
2022/04/28 04:25:17;;;;;;;7.60;0.98;;;;;;;14.66;19.91;100556.81;5073910;28;20044;-62
2022/04/28 04:27:42;;;;;;;3.45;1.05;;;;;;;15.14;17.95;100565.34;5073512;28;20079;-63
2022/04/28 04:32:53;;;;;;;1.77;1.02;;;;;;;17.02;16.62;100572.59;5073916;28;20035;-62
2022/04/28 04:35:18;;;;;;;4.15;1.30;;;;;;;17.79;15.64;100569.63;5073537;28;20025;-62
2022/04/28 04:37:43;;;;;;;2.13;1.02;;;;;;;17.98;15.69;100581.34;5073226;28;20031;-61
2022/04/28 04:40:11;;;;;;;4.47;1.30;;;;;;;18.53;15.43;100585.75;5073921;28;20029;-62
2022/04/28 04:42:37;;;;;;;3.28;1.20;;;;;;;19.53;14.20;100576.34;5073961;28;20028;-62
2022/04/28 04:45:03;;;;;;;5.32;1.42;;;;;;;20.15;13.86;100579.75;5073806;28;20040;-63
2022/04/28 04:47:28;;;;;;;2.85;1.30;;;;;;;20.68;12.97;100591.13;5073525;28;20037;-64
2022/04/28 04:49:54;;;;;;;3.67;1.60;;;;;;;21.20;12.81;100589.00;5056054;28;20381;-61
2022/04/28 04:52:19;;;;;;;1.85;1.58;;;;;;;22.03;12.26;100584.03;5073791;28;20380;-61
2022/04/28 04:54:44;;;;;;;2.72;1.40;;;;;;;22.86;11.80;100593.44;5073931;28;20032;-62
2022/04/28 04:57:10;;;;;;;2.75;1.85;;;;;;;23.51;11.13;100596.50;5039196;28;20044;-62
2022/04/28 04:59:35;;;;;;;3.45;1.80;;;;;;;23.92;10.79;100579.53;5055677;28;20040;-62
2022/04/28 05:02:01;;;;;;;3.25;1.52;;;;;;;24.45;10.61;100592.06;5073785;28;20028;-63
2022/04/28 05:04:26;;;;;;;2.15;1.55;;;;;;;24.82;10.05;100591.09;5073540;28;20025;-64
2022/04/28 05:06:52;;;;;;;8.52;4.93;;;;;;;25.71;9.48;100583.19;5055373;28;20102;-63
2022/04/28 05:09:17;;;;;;;3.42;1.85;;;;;;;26.16;8.91;100591.78;5073381;28;20099;-63
2022/04/28 05:11:42;;;;;;;4.72;1.95;;;;;;;26.31;9.39;100596.25;5073733;28;20472;-64
2022/04/28 05:14:08;;;;;;;3.83;1.73;;;;;;;26.51;9.10;100601.75;5072353;28;20460;-63
2022/04/28 05:16:33;;;;;;;2.88;1.70;;;;;;;27.36;8.78;100603.75;5072783;28;20029;-63
2022/04/28 05:18:59;;;;;;;2.95;1.48;;;;;;;28.20;8.01;100608.47;5073185;28;20116;-64
2022/04/28 05:21:24;;;;;;;2.83;1.70;;;;;;;28.64;7.54;100585.69;5073308;28;20448;-63
2022/04/28 05:23:50;;;;;;;1.98;1.40;;;;;;;29.07;7.41;100609.69;5073089;28;20032;-63
2022/04/28 05:26:15;;;;;;;3.47;1.45;;;;;;;29.58;6.98;100612.31;5072934;28;20048;-63
2022/04/28 05:28:41;;;;;;;2.25;1.50;;;;;;;29.87;6.73;100607.06;5073268;28;20039;-63
2022/04/28 05:31:06;;;;;;;3.33;1.67;;;;;;;30.29;6.79;100599.91;5073185;28;20047;-64
2022/04/28 05:33:32;;;;;;;4.53;1.60;;;;;;;30.70;6.80;100600.97;5072944;28;20090;-63
2022/04/28 05:35:59;;;;;;;4.60;1.40;;;;;;;31.20;6.75;100591.31;5072707;28;20028;-62
2022/04/28 05:38:24;;;;;;;3.78;1.55;;;;;;;31.31;6.33;100605.41;5054341;28;20118;-62
2022/04/28 05:40:50;;;;;;;1.40;1.30;;;;;;;31.56;5.94;100605.06;5072170;28;20052;-62
2022/04/28 05:46:00;;;;;;;2.25;1.40;;;;;;;31.02;5.68;100608.06;5072124;28;20040;-63
2022/04/28 05:48:25;;;;;;;1.83;1.35;;;;;;;30.26;6.01;100606.72;5072443;28;20028;-63
2022/04/28 05:50:51;;;;;;;2.40;1.63;;;;;;;30.16;6.29;100601.81;5072101;28;20040;-63
2022/04/28 05:53:16;;;;;;;4.32;1.33;;;;;;;29.59;6.66;100604.91;5072060;28;20494;-61
2022/04/28 05:55:42;;;;;;;3.90;1.20;;;;;;;30.35;6.21;100596.19;5072275;28;20116;-62
2022/04/28 05:58:07;;;;;;;1.45;1.30;;;;;;;31.19;5.73;100594.31;5054140;28;20063;-62
2022/04/28 06:00:34;;;;;;;3.80;1.42;;;;;;;32.33;5.22;100602.16;5071670;28;20127;-62
2022/04/28 06:03:00;;;;;;;2.03;1.55;;;;;;;33.56;4.85;100602.34;5072262;28;20452;-62
2022/04/28 06:05:26;;;;;;;2.60;1.40;;;;;;;33.55;4.59;100584.00;5072132;28;20032;-63
2022/04/28 06:07:52;;;;;;;1.52;1.38;;;;;;;32.93;4.89;100578.47;5071418;28;20116;-63
2022/04/28 06:10:18;;;;;;;2.95;1.40;;;;;;;32.31;4.75;100596.81;5072340;28;20037;-62
2022/04/28 06:12:43;;;;;;;2.50;1.40;;;;;;;32.81;4.81;100590.72;5072089;28;20036;-64
2022/04/28 06:15:10;;;;;;;4.70;1.80;;;;;;;33.98;4.38;100595.31;5071548;28;20036;-64
2022/04/28 06:17:36;;;;;;;3.63;1.27;;;;;;;34.67;3.98;100592.03;5071808;28;20051;-62
2022/04/28 06:20:02;;;;;;;2.67;1.33;;;;;;;35.47;3.60;100605.03;5054003;28;20457;-62
2022/04/28 06:22:28;;;;;;;2.70;1.30;;;;;;;35.85;3.52;100600.16;5071341;28;20094;-63
2022/04/28 06:24:55;;;;;;;3.78;1.50;;;;;;;36.53;3.32;100608.63;5071381;28;20388;-63
2022/04/28 06:27:21;;;;;;;1.98;1.60;;;;;;;36.83;2.87;100607.75;5071825;28;20472;-63
2022/04/28 06:29:48;;;;;;;2.75;1.80;;;;;;;37.20;2.88;100612.13;5071840;28;20456;-63
2022/04/28 06:32:16;;;;;;;4.47;1.55;;;;;;;38.00;2.54;100617.13;5051640;28;20354;-62
2022/04/28 06:34:45;;;;;;;4.55;1.48;;;;;;;38.29;2.33;100607.94;5051482;28;20069;-63
2022/04/28 06:37:12;;;;;;;2.25;1.30;;;;;;;38.11;2.35;100615.94;5051740;28;20462;-63
2022/04/28 06:39:38;;;;;;;1.92;1.45;;;;;;;38.02;1.75;100612.06;5051431;28;20128;-63
2022/04/28 06:42:04;;;;;;;1.90;1.17;;;;;;;37.38;1.83;100611.78;5033454;28;20107;-63
2022/04/28 06:44:29;;;;;;;3.60;1.50;;;;;;;37.17;2.01;100595.97;5037106;28;20220;-61
2022/04/28 06:46:55;;;;;;;3.92;1.23;;;;;;;36.72;2.26;100611.66;5031252;28;20060;-61
2022/04/28 06:49:20;;;;;;;2.97;1.60;;;;;;;36.66;2.55;100616.44;5049759;28;20494;-62
2022/04/28 06:51:46;;;;;;;1.20;1.10;;;;;;;36.95;2.08;100618.63;5049771;28;20021;-61
2022/04/28 06:54:12;;;;;;;1.85;1.20;;;;;;;36.81;2.03;100615.56;5048716;28;20492;-60
2022/04/28 06:56:37;;;;;;;1.60;1.50;;;;;;;37.30;1.63;100616.84;5041699;28;20036;-61
2022/04/28 06:59:03;;;;;;;2.35;1.50;;;;;;;37.58;2.30;100614.53;5039850;28;20039;-62
2022/04/28 07:01:28;;;;;;;3.25;1.35;;;;;;;37.60;1.84;100612.28;5050788;28;20033;-63
2022/04/28 07:03:54;;;;;;;1.98;1.45;;;;;;;36.55;1.97;100611.97;5033237;28;20055;-61
2022/04/28 07:06:19;;;;;;;2.42;1.65;;;;;;;36.03;2.31;100600.78;5050933;28;20033;-57
2022/04/28 07:08:44;;;;;;;4.43;1.67;;;;;;;35.97;2.63;100607.44;5050917;28;20029;-61
2022/04/28 07:11:10;;;;;;;1.92;1.52;;;;;;;35.93;2.29;100598.78;5050746;28;20051;-61
2022/04/28 07:13:37;;;;;;;2.78;1.80;;;;;;;36.32;2.62;100606.66;5049423;28;20077;-61
2022/04/28 07:16:04;;;;;;;5.15;1.80;;;;;;;37.09;2.16;100604.09;5051108;28;20037;-60
2022/04/28 07:18:29;;;;;;;2.20;1.50;;;;;;;37.40;1.58;100598.41;5050863;28;20041;-61
2022/04/28 07:20:55;;;;;;;2.05;1.67;;;;;;;38.30;1.51;100604.00;5050420;28;20054;-60
2022/04/28 07:23:20;;;;;;;3.40;2.00;;;;;;;38.69;1.50;100605.94;5041813;28;20053;-61
2022/04/28 07:25:46;;;;;;;1.95;1.45;;;;;;;37.76;1.69;100590.69;5036309;28;20033;-60
2022/04/28 07:28:12;;;;;;;1.70;1.60;;;;;;;36.82;1.92;100614.47;5014730;28;20142;-61
2022/04/28 07:30:37;;;;;;;1.52;1.42;;;;;;;36.81;1.80;100603.56;5036677;28;20098;-62
2022/04/28 07:33:03;;;;;;;2.58;1.45;;;;;;;36.93;1.74;100612.47;5034698;28;20072;-62
2022/04/28 07:35:29;;;;;;;3.10;1.58;;;;;;;37.03;1.92;100614.44;5034558;28;20029;-61
2022/04/28 07:37:55;;;;;;;2.97;1.60;;;;;;;35.97;2.25;100613.00;5029706;28;20022;-60
2022/04/28 07:40:20;;;;;;;1.95;1.42;;;;;;;32.53;3.58;100617.44;5030370;28;20111;-65
2022/04/28 07:42:46;;;;;;;2.03;1.33;;;;;;;28.81;4.85;100615.47;5029985;28;20129;-63
2022/04/28 07:45:11;;;;;;;3.78;1.50;;;;;;;28.04;5.62;100617.25;5043905;28;20029;-64
2022/04/28 07:47:37;;;;;;;2.53;1.55;;;;;;;30.17;4.60;100616.44;5050082;28;20035;-60
2022/04/28 07:50:03;;;;;;;2.72;1.55;;;;;;;31.85;4.07;100630.06;5049708;28;20060;-60
2022/04/28 07:52:30;;;;;;;2.70;1.52;;;;;;;32.08;3.80;100617.22;5049937;28;20028;-59
2022/04/28 07:54:56;;;;;;;1.60;1.25;;;;;;;31.85;3.32;100607.91;5049894;28;20025;-62
2022/04/28 07:57:23;;;;;;;2.28;1.40;;;;;;;29.35;4.62;100626.78;5050120;28;20033;-58
2022/04/28 07:59:49;;;;;;;4.18;1.40;;;;;;;27.93;5.13;100622.38;5049878;28;20048;-62
2022/04/28 08:02:15;;;;;;;2.30;1.50;;;;;;;27.99;5.28;100617.06;5049928;28;20029;-64
2022/04/28 08:04:41;;;;;;;2.25;1.45;;;;;;;27.82;5.66;100612.06;5049535;28;20043;-61
2022/04/28 08:07:06;;;;;;;3.58;1.50;;;;;;;28.17;5.48;100602.59;5048722;28;20025;-62
2022/04/28 08:09:32;;;;;;;2.08;1.30;;;;;;;26.56;5.99;100601.13;5044683;28;20029;-61
2022/04/28 08:11:58;;;;;;;3.95;1.52;;;;;;;24.18;7.56;100613.72;5039846;28;20038;-64
2022/04/28 08:14:24;;;;;;;2.88;1.65;;;;;;;21.91;8.93;100610.84;5034719;28;20070;-63
2022/04/28 08:16:54;;;;;;;4.90;1.75;;;;;;;20.15;9.95;100618.66;5031488;28;20448;-62
2022/04/28 08:19:20;;;;;;;3.90;1.60;;;;;;;18.16;11.19;100616.59;5036721;28;20064;-63
2022/04/28 08:21:48;;;;;;;2.28;1.77;;;;;;;17.10;12.05;100618.69;5030374;28;20042;-62
2022/04/28 08:24:14;;;;;;;3.38;2.15;;;;;;;15.70;13.00;100612.53;5043391;28;20152;-64
2022/04/28 08:26:40;;;;;;;2.17;1.60;;;;;;;14.74;14.23;100597.50;5048480;28;20075;-62
2022/04/28 08:29:06;;;;;;;6.20;1.90;;;;;;;14.57;14.69;100625.00;5048635;28;20496;-62
2022/04/28 08:31:32;;;;;;;4.32;1.98;;;;;;;14.45;15.03;100622.34;5049004;28;20044;-63
2022/04/28 08:33:58;;;;;;;4.13;2.15;;;;;;;14.40;14.42;100613.81;5049322;28;20068;-64
2022/04/28 08:36:25;;;;;;;3.78;1.90;;;;;;;14.32;14.50;100608.22;5048709;28;20136;-68
2022/04/28 08:38:52;;;;;;;2.47;1.70;;;;;;;14.26;14.38;100616.81;5049027;28;20027;-61
2022/04/28 08:41:45;;;;;;;3.22;1.73;;;;;;;14.31;14.57;100614.59;5049697;28;20377;-63
2022/04/28 08:44:16;;;;;;;2.35;1.80;;;;;;;13.84;15.09;100618.41;5049454;28;20469;-62
2022/04/28 08:46:51;;;;;;;3.78;1.95;;;;;;;13.29;16.00;100618.31;5049550;28;20036;-62
2022/04/28 08:49:18;;;;;;;3.83;2.15;;;;;;;12.83;16.39;100622.78;5051224;28;20337;-62
2022/04/28 08:51:44;;;;;;;5.43;2.00;;;;;;;12.61;16.60;100594.88;5011784;28;20027;-65
2022/04/28 08:54:12;;;;;;;3.33;1.95;;;;;;;12.92;16.38;100622.06;5041475;28;20029;-63
2022/04/28 08:56:39;;;;;;;2.63;1.67;;;;;;;13.22;16.07;100612.53;5052852;28;20420;-61
2022/04/28 08:59:08;;;;;;;3.13;1.70;;;;;;;13.42;15.99;100610.09;5052652;28;20037;-62
2022/04/28 09:01:34;;;;;;;4.93;1.73;;;;;;;13.44;16.09;100597.41;5044546;28;20445;-63
2022/04/28 09:04:02;;;;;;;2.45;2.10;;;;;;;13.72;15.87;100606.81;5053019;28;20033;-62
2022/04/28 09:06:31;;;;;;;6.95;2.03;;;;;;;13.71;15.71;100604.22;5052113;28;20032;-63
2022/04/28 09:08:57;;;;;;;3.40;2.03;;;;;;;13.43;15.83;100606.47;5037913;28;20466;-60
2022/04/28 09:11:25;;;;;;;3.90;1.80;;;;;;;12.91;16.35;100612.28;5015283;28;20438;-62
2022/04/28 09:14:15;;;;;;;5.18;2.10;;;;;;;12.68;16.10;100617.59;5032921;28;20026;-59
2022/04/28 09:16:41;;;;;;;4.88;1.77;;;;;;;12.57;16.30;100618.44;5031913;28;20030;-59
2022/04/28 09:19:08;;;;;;;1.85;1.58;;;;;;;12.60;16.55;100625.41;5031695;28;20030;-59
2022/04/28 09:21:35;;;;;;;4.53;1.73;;;;;;;12.56;16.65;100614.03;5034148;28;20033;-62
2022/04/28 09:24:03;;;;;;;3.08;1.77;;;;;;;12.55;16.80;100614.16;5052301;28;20033;-60
2022/04/28 09:26:30;;;;;;;7.25;2.20;;;;;;;12.46;16.72;100613.88;5052311;28;20048;-61
2022/04/28 09:28:57;;;;;;;4.03;1.52;;;;;;;12.46;17.41;100611.19;5041661;28;20091;-66
2022/04/28 09:31:25;;;;;;;4.72;2.60;;;;;;;12.70;17.23;100602.22;5022726;28;20052;-66
2022/04/28 09:33:50;;;;;;;3.33;2.13;;;;;;;12.93;16.48;100610.31;5038057;28;20029;-65
2022/04/28 09:36:16;;;;;;;4.53;2.00;;;;;;;12.97;16.94;100609.09;5031339;28;20048;-63
2022/04/28 09:38:42;;;;;;;3.50;1.70;;;;;;;12.85;16.53;100605.53;5022399;28;20029;-66
2022/04/28 09:43:56;;;;;;;4.10;2.05;;;;;;;12.54;16.91;100609.72;5036918;28;20052;-64
2022/04/28 09:46:25;;;;;;;5.00;1.52;;;;;;;12.38;17.29;100618.09;5050303;28;20501;-64
2022/04/28 09:48:52;;;;;;;3.17;1.63;;;;;;;12.39;16.88;100612.63;5049781;28;20029;-62
2022/04/28 09:51:22;;;;;;;3.22;2.00;;;;;;;12.32;17.80;100611.41;5051419;28;20072;-63
2022/04/28 09:53:49;;;;;;;3.45;2.00;;;;;;;12.63;17.86;100620.63;5034470;28;20123;-63
2022/04/28 09:56:16;;;;;;;2.78;1.60;;;;;;;13.13;16.56;100605.22;5052139;28;20029;-64
2022/04/28 09:58:42;;;;;;;7.95;1.80;;;;;;;13.43;16.47;100609.16;5051839;28;20028;-64
2022/04/28 10:01:08;;;;;;;7.50;2.10;;;;;;;13.72;16.37;100608.63;5051954;28;20270;-64
2022/04/28 10:03:35;;;;;;;4.75;2.28;;;;;;;13.85;15.98;100617.41;5052244;28;20108;-65
2022/04/28 10:06:05;;;;;;;4.57;1.85;;;;;;;13.83;15.84;100616.69;5052132;28;20139;-64
2022/04/28 10:08:33;;;;;;;3.90;1.73;;;;;;;13.31;16.44;100605.59;5051880;28;20100;-64
2022/04/28 10:11:01;;;;;;;4.50;2.05;;;;;;;12.76;16.76;100606.28;5034533;28;20033;-64
2022/04/28 10:13:31;;;;;;;1.98;1.55;;;;;;;12.83;17.09;100628.16;5052263;28;20029;-63
2022/04/28 10:16:01;;;;;;;2.90;1.90;;;;;;;12.92;17.01;100611.31;5052277;28;20082;-65
2022/04/28 10:18:37;;;;;;;2.08;1.77;;;;;;;13.23;16.84;100614.25;5052881;28;20111;-65
2022/04/28 10:21:05;;;;;;;5.35;2.05;;;;;;;13.33;16.76;100615.25;5033884;28;20055;-64
2022/04/28 10:34:58;;;;;;;3.33;1.85;;;;;;;14.22;16.30;100616.22;5051314;28;20465;-65
2022/04/28 10:37:36;;;;;;;6.95;2.40;;;;;;;13.70;16.36;100621.34;5051924;28;20452;-64
2022/04/28 10:40:03;;;;;;;3.60;1.80;;;;;;;13.16;16.75;100607.66;5051851;28;20489;-64
2022/04/28 10:42:30;;;;;;;2.15;1.50;;;;;;;12.98;16.82;100609.97;5051680;28;20035;-64
2022/04/28 10:44:57;;;;;;;4.50;1.83;;;;;;;12.89;17.15;100598.09;5033803;28;20068;-64
2022/04/28 10:47:29;;;;;;;4.53;2.08;;;;;;;13.09;16.62;100607.28;5051597;28;20469;-64
2022/04/28 10:49:54;;;;;;;5.40;1.75;;;;;;;13.31;16.62;100605.59;5051627;28;20033;-64
2022/04/28 10:52:22;;;;;;;4.22;1.80;;;;;;;13.64;16.27;100611.97;5051569;28;20090;-65
2022/04/28 10:54:52;;;;;;;4.53;1.88;;;;;;;13.96;16.27;100604.91;5051188;28;20040;-66
2022/04/28 10:57:18;;;;;;;3.83;1.90;;;;;;;13.97;16.79;100574.31;5033773;28;20033;-63
2022/04/28 10:59:49;;;;;;;5.65;1.77;;;;;;;14.37;16.32;100603.28;5051296;28;20112;-65
2022/04/28 11:02:17;;;;;;;3.95;1.80;;;;;;;14.37;16.07;100607.84;5051618;28;20036;-65
2022/04/28 11:04:52;;;;;;;4.45;2.05;;;;;;;14.19;16.15;100603.00;5051121;28;20492;-64
2022/04/28 11:07:24;;;;;;;3.65;1.90;;;;;;;13.85;16.08;100587.81;5041353;28;20377;-61
2022/04/28 11:09:55;;;;;;;7.32;2.50;;;;;;;13.41;16.62;100563.53;5009878;28;20123;-62
2022/04/28 11:12:22;;;;;;;5.05;1.73;;;;;;;13.36;16.57;100581.84;5031822;28;20040;-64
2022/04/28 11:15:02;;;;;;;5.13;1.92;;;;;;;13.42;16.41;100575.13;5050664;28;20060;-63
2022/04/28 11:17:32;;;;;;;7.18;2.13;;;;;;;13.13;16.71;100560.34;5033638;28;20107;-65
2022/04/28 11:20:04;;;;;;;5.38;2.30;;;;;;;13.39;16.74;100570.00;5050117;28;20025;-63
2022/04/28 11:22:30;;;;;;;4.10;2.05;;;;;;;12.86;17.19;100571.47;5049347;28;20400;-62
2022/04/28 11:24:59;;;;;;;3.85;2.13;;;;;;;12.70;17.91;100564.59;5024163;28;20464;-62
2022/04/28 11:27:27;;;;;;;4.95;2.35;;;;;;;12.73;18.04;100574.28;5031993;28;20106;-63
2022/04/28 11:29:58;;;;;;;4.20;2.00;;;;;;;13.03;17.89;100565.63;5050207;28;20032;-65
2022/04/28 11:32:25;;;;;;;4.18;1.85;;;;;;;13.13;17.35;100564.88;5048596;28;20103;-61
2022/04/28 11:34:52;;;;;;;3.17;1.92;;;;;;;13.19;17.31;100561.72;5049968;28;20032;-63
2022/04/28 11:37:22;;;;;;;2.92;1.73;;;;;;;13.13;17.49;100571.09;5049705;28;20151;-62
2022/04/28 11:39:50;;;;;;;6.38;2.33;;;;;;;13.14;17.26;100572.84;5050124;28;20072;-62
2022/04/28 11:42:16;;;;;;;5.75;2.00;;;;;;;13.08;16.97;100562.56;5049798;28;20028;-55
2022/04/28 11:44:46;;;;;;;3.65;1.92;;;;;;;13.08;17.41;100562.56;5031692;28;20033;-57
2022/04/28 11:47:12;;;;;;;8.05;1.90;;;;;;;12.75;17.42;100557.03;5049480;28;20044;-62
2022/04/28 11:49:39;;;;;;;5.55;2.00;;;;;;;12.84;17.89;100560.00;5050206;28;20040;-60
2022/04/28 11:52:27;;;;;;;3.78;1.58;;;;;;;13.28;17.18;100555.59;5049027;28;20080;-62
2022/04/28 11:55:03;;;;;;;2.15;1.48;;;;;;;13.44;16.85;100557.94;5049904;28;20037;-62
2022/04/28 11:57:30;;;;;;;3.15;1.80;;;;;;;13.48;16.89;100548.63;5050470;28;20481;-62
2022/04/28 11:59:58;;;;;;;4.00;1.90;;;;;;;13.60;17.13;100541.41;5032140;28;20025;-63